createdAt,value
2019-02-05T00:00:50.825Z,100604.81
2019-02-05T00:03:22.072Z,100606.92
2019-02-05T00:05:51.680Z,100613.26
2019-02-05T00:08:21.184Z,100591.72
2019-02-05T00:10:50.573Z,100589.53
2019-02-05T00:13:19.999Z,100599.05
2019-02-05T00:15:49.371Z,100590.22
2019-02-05T00:18:18.731Z,100593.08
2019-02-05T00:20:48.223Z,100595.95
2019-02-05T00:23:17.611Z,100592.61
2019-02-05T00:25:46.992Z,100592.31
2019-02-05T00:28:16.347Z,100595.90
2019-02-05T00:30:45.722Z,100587.26
2019-02-05T00:33:15.559Z,100596.33
2019-02-05T00:35:44.936Z,100610.36
2019-02-05T00:38:14.298Z,100605.97
2019-02-05T00:40:43.665Z,100603.85
2019-02-05T00:43:13.292Z,100606.86
2019-02-05T00:45:42.668Z,100594.67
2019-02-05T00:48:12.348Z,100608.71
2019-02-05T00:50:41.732Z,100611.30
2019-02-05T00:53:11.083Z,100611.16
2019-02-05T00:55:42.182Z,100619.97
2019-02-05T00:58:11.548Z,100605.02
2019-02-05T01:00:40.921Z,100612.25
2019-02-05T01:03:10.493Z,100607.80
2019-02-05T01:05:39.895Z,100620.09
2019-02-05T01:08:09.397Z,100621.20
2019-02-05T01:10:39.035Z,100615.77
2019-02-05T01:13:10.292Z,100624.88
2019-02-05T01:15:39.698Z,100613.66
2019-02-05T01:18:09.057Z,100632.22
2019-02-05T01:20:38.413Z,100629.30
2019-02-05T01:23:08.041Z,100633.97
2019-02-05T01:25:37.398Z,100641.82
2019-02-05T01:28:06.917Z,100627.74
2019-02-05T01:30:36.280Z,100615.47
2019-02-05T01:33:05.997Z,100628.77
2019-02-05T01:35:36.384Z,100624.88
2019-02-05T01:38:06.034Z,100619.08
2019-02-05T01:40:35.630Z,100631.05
2019-02-05T01:43:05.138Z,100636.20
2019-02-05T01:45:34.513Z,100632.38
2019-02-05T01:48:03.945Z,100633.06
2019-02-05T01:50:33.307Z,100646.52
2019-02-05T01:53:03.051Z,100642.31
2019-02-05T01:55:33.338Z,100647.15
2019-02-05T01:58:02.716Z,100645.71
2019-02-05T02:00:35.022Z,100651.55
2019-02-05T02:03:05.424Z,100655.59
2019-02-05T02:05:34.952Z,100643.64
2019-02-05T02:08:04.588Z,100662.94
2019-02-05T02:10:34.090Z,100652.80
2019-02-05T02:13:03.458Z,100640.87
2019-02-05T02:15:32.812Z,100650.23
2019-02-05T02:18:02.180Z,100649.72
2019-02-05T02:20:31.777Z,100655.16
2019-02-05T02:23:01.137Z,100659.83
2019-02-05T02:25:30.502Z,100647.77
2019-02-05T02:27:59.866Z,100653.06
2019-02-05T02:30:37.546Z,100646.06
2019-02-05T02:33:07.611Z,100651.12
2019-02-05T02:35:37.421Z,100652.64
2019-02-05T02:38:06.874Z,100656.80
2019-02-05T02:40:36.239Z,100650.61
2019-02-05T02:43:05.739Z,100648.75
2019-02-05T02:45:35.115Z,100651.23
2019-02-05T02:48:04.625Z,100647.52
2019-02-05T02:50:34.170Z,100657.67
2019-02-05T02:53:03.588Z,100660.82
2019-02-05T02:55:33.291Z,100651.27
2019-02-05T02:58:02.661Z,100653.72
2019-02-05T03:00:32.026Z,100650.84
2019-02-05T03:03:01.385Z,100662.09
2019-02-05T03:05:31.025Z,100656.93
2019-02-05T03:08:00.396Z,100675.01
2019-02-05T03:10:31.396Z,100665.98
2019-02-05T03:13:00.901Z,100659.11
2019-02-05T03:15:30.510Z,100668.56
2019-02-05T03:18:00.118Z,100666.30
2019-02-05T03:20:29.488Z,100675.34
2019-02-05T03:22:58.847Z,100673.44
2019-02-05T03:25:28.230Z,100679.89
2019-02-05T03:27:57.587Z,100675.41
2019-02-05T03:30:27.250Z,100679.72
2019-02-05T03:32:57.812Z,100665.05
2019-02-05T03:35:27.320Z,100675.35
2019-02-05T03:37:57.084Z,100665.35
2019-02-05T03:40:34.089Z,100667.80
2019-02-05T03:43:03.529Z,100668.93
2019-02-05T03:45:34.114Z,100672.34
2019-02-05T03:48:06.177Z,100664.78
2019-02-05T03:50:40.812Z,100680.75
2019-02-05T03:53:17.464Z,100684.53
2019-02-05T03:56:21.405Z,100685.38
2019-02-05T03:59:23.209Z,100681.89
2019-02-05T04:02:34.907Z,100680.23
2019-02-05T04:05:41.459Z,100674.02
2019-02-05T04:08:27.459Z,100690.13
2019-02-05T04:11:22.608Z,100682.17
2019-02-05T04:14:05.532Z,100681.50
2019-02-05T04:17:01.977Z,100683.90
2019-02-05T04:19:54.147Z,100678.66
2019-02-05T04:22:49.269Z,100670.34
2019-02-05T04:25:41.692Z,100676.05
2019-02-05T04:28:38.051Z,100678.92
2019-02-05T04:31:14.815Z,100671.89
2019-02-05T04:33:51.390Z,100676.70
2019-02-05T04:37:02.917Z,100677.48
2019-02-05T04:39:46.206Z,100682.31
2019-02-05T04:42:40.337Z,100681.06
2019-02-05T04:45:46.074Z,100688.27
2019-02-05T04:48:43.706Z,100696.68
2019-02-05T04:51:53.031Z,100699.39
2019-02-05T04:55:06.907Z,100709.80
2019-02-05T04:58:06.584Z,100711.28
2019-02-05T05:01:05.674Z,100712.27
2019-02-05T05:04:03.576Z,100710.94
2019-02-05T05:07:04.974Z,100714.28
2019-02-05T05:09:57.493Z,100717.81
2019-02-05T05:12:27.941Z,100723.08
2019-02-05T05:14:57.288Z,100715.67
2019-02-05T05:17:26.655Z,100713.49
2019-02-05T05:19:56.019Z,100717.82
2019-02-05T05:22:26.296Z,100719.34
2019-02-05T05:24:55.943Z,100706.64
2019-02-05T05:27:26.066Z,100709.74
2019-02-05T05:29:55.971Z,100712.65
2019-02-05T05:32:25.332Z,100702.54
2019-02-05T05:34:54.988Z,100708.55
2019-02-05T05:37:24.425Z,100708.42
2019-02-05T05:39:53.774Z,100701.20
2019-02-05T05:42:23.466Z,100702.69
2019-02-05T05:44:52.839Z,100717.98
2019-02-05T05:47:22.216Z,100720.55
2019-02-05T05:49:51.589Z,100717.70
2019-02-05T05:52:20.955Z,100716.68
2019-02-05T05:54:50.326Z,100722.91
2019-02-05T05:57:19.701Z,100713.86
2019-02-05T05:59:49.256Z,100713.49
2019-02-05T06:02:20.259Z,100722.36
2019-02-05T06:04:49.633Z,100724.48
2019-02-05T06:07:18.987Z,100726.41
2019-02-05T06:09:48.517Z,100723.84
2019-02-05T06:12:17.882Z,100731.19
2019-02-05T06:14:47.430Z,100737.69
2019-02-05T06:17:17.046Z,100732.47
2019-02-05T06:19:46.502Z,100734.62
2019-02-05T06:22:15.865Z,100735.70
2019-02-05T06:24:45.551Z,100739.78
2019-02-05T06:27:14.913Z,100743.96
2019-02-05T06:29:44.290Z,100740.90
2019-02-05T06:32:13.636Z,100740.07
2019-02-05T06:34:43.005Z,100745.25
2019-02-05T06:37:12.680Z,100745.26
2019-02-05T06:39:42.043Z,100740.50
2019-02-05T06:42:11.440Z,100745.00
2019-02-05T06:44:40.815Z,100756.34
2019-02-05T06:47:10.461Z,100755.17
2019-02-05T06:49:40.966Z,100756.09
2019-02-05T06:52:10.412Z,100751.98
2019-02-05T06:54:41.305Z,100760.31
2019-02-05T06:57:10.683Z,100765.84
2019-02-05T06:59:40.133Z,100761.85
2019-02-05T07:02:11.084Z,100760.81
2019-02-05T07:04:40.441Z,100762.96
2019-02-05T07:07:09.915Z,100767.84
2019-02-05T07:09:39.269Z,100767.62
2019-02-05T07:12:08.657Z,100770.69
2019-02-05T07:14:40.791Z,100769.59
2019-02-05T07:17:10.489Z,100772.84
2019-02-05T07:19:40.221Z,100766.05
2019-02-05T07:22:09.583Z,100763.95
2019-02-05T07:24:38.941Z,100778.71
2019-02-05T07:27:08.382Z,100773.41
2019-02-05T07:29:37.908Z,100780.36
2019-02-05T07:32:07.889Z,100780.48
2019-02-05T07:34:37.486Z,100772.09
2019-02-05T07:37:06.932Z,100788.28
2019-02-05T07:39:36.300Z,100785.94
2019-02-05T07:42:05.745Z,100783.41
2019-02-05T07:44:35.106Z,100792.00
2019-02-05T07:47:04.785Z,100803.84
2019-02-05T07:49:34.145Z,100795.16
2019-02-05T07:52:03.539Z,100802.63
2019-02-05T07:54:32.882Z,100809.95
2019-02-05T07:57:02.273Z,100823.06
2019-02-05T07:59:31.654Z,100817.42
2019-02-05T08:02:01.399Z,100820.90
2019-02-05T08:04:30.760Z,100827.17
2019-02-05T08:07:00.425Z,100840.08
2019-02-05T08:09:29.886Z,100840.78
2019-02-05T08:11:59.278Z,100846.97
2019-02-05T08:14:29.006Z,100847.13
2019-02-05T08:16:58.650Z,100855.58
2019-02-05T08:19:28.035Z,100863.98
2019-02-05T08:21:57.487Z,100865.63
2019-02-05T08:24:27.026Z,100864.63
2019-02-05T08:26:56.582Z,100867.69
2019-02-05T08:29:26.984Z,100866.45
2019-02-05T08:31:56.366Z,100870.19
2019-02-05T08:34:25.725Z,100872.51
2019-02-05T08:36:55.087Z,100876.29
2019-02-05T08:39:24.705Z,100870.89
2019-02-05T08:41:54.353Z,100881.58
2019-02-05T08:44:23.734Z,100877.30
2019-02-05T08:46:53.328Z,100878.78
2019-02-05T08:49:22.724Z,100876.30
2019-02-05T08:51:52.488Z,100879.16
2019-02-05T08:54:21.882Z,100880.45
2019-02-05T08:56:51.279Z,100881.95
2019-02-05T08:59:21.198Z,100885.13
2019-02-05T09:01:50.806Z,100889.55
2019-02-05T09:04:20.423Z,100890.20
2019-02-05T09:06:49.792Z,100892.06
2019-02-05T09:09:19.180Z,100889.13
2019-02-05T09:11:48.673Z,100894.52
2019-02-05T09:14:18.067Z,100895.78
2019-02-05T09:16:47.448Z,100893.42
2019-02-05T09:19:17.151Z,100897.67
2019-02-05T09:21:49.780Z,100894.37
2019-02-05T09:24:18.920Z,100887.97
2019-02-05T09:26:48.283Z,100891.56
2019-02-05T09:29:18.556Z,100889.70
2019-02-05T09:31:48.150Z,100888.98
2019-02-05T09:34:17.523Z,100889.98
2019-02-05T09:36:46.886Z,100887.47
2019-02-05T09:39:16.273Z,100889.72
2019-02-05T09:41:45.782Z,100895.17
2019-02-05T09:44:15.211Z,100898.16
2019-02-05T09:46:44.858Z,100910.88
2019-02-05T09:49:14.262Z,100916.50
2019-02-05T09:51:43.651Z,100915.39
2019-02-05T09:54:13.228Z,100916.81
2019-02-05T09:56:42.581Z,100927.91
2019-02-05T09:59:15.380Z,100921.14
2019-02-05T10:01:45.138Z,100924.03
2019-02-05T10:04:14.516Z,100925.44
2019-02-05T10:06:44.160Z,100922.16
2019-02-05T10:09:13.537Z,100923.05
2019-02-05T10:11:43.133Z,100929.84
2019-02-05T10:14:12.511Z,100930.62
2019-02-05T10:16:41.922Z,100939.84
2019-02-05T10:19:12.015Z,100934.99
2019-02-05T10:21:41.390Z,100939.92
2019-02-05T10:24:10.827Z,100946.51
2019-02-05T10:26:40.201Z,100945.17
2019-02-05T10:29:09.913Z,100945.72
2019-02-05T10:31:39.308Z,100950.20
2019-02-05T10:34:08.839Z,100951.31
2019-02-05T10:36:38.235Z,100952.70
2019-02-05T10:39:10.189Z,100950.23
2019-02-05T10:41:39.612Z,100948.31
2019-02-05T10:44:09.124Z,100947.78
2019-02-05T10:46:38.728Z,100944.36
2019-02-05T10:49:08.172Z,100949.77
2019-02-05T10:51:37.576Z,100943.78
2019-02-05T10:54:07.719Z,100948.36
2019-02-05T10:56:38.572Z,100943.97
2019-02-05T10:59:08.059Z,100949.05
2019-02-05T11:01:40.484Z,100947.17
2019-02-05T11:04:09.913Z,100946.83
2019-02-05T11:06:39.367Z,100945.79
2019-02-05T11:09:09.488Z,100941.37
2019-02-05T11:11:38.875Z,100936.69
2019-02-05T11:14:08.316Z,100936.42
2019-02-05T11:16:37.955Z,100933.99
2019-02-05T11:19:07.318Z,100932.59
2019-02-05T11:21:37.078Z,100928.75
2019-02-05T11:24:07.291Z,100937.14
2019-02-05T11:26:36.980Z,100928.13
2019-02-05T11:29:06.452Z,100927.05
2019-02-05T11:31:36.059Z,100930.29
2019-02-05T11:34:06.426Z,100930.81
2019-02-05T11:36:35.803Z,100924.47
2019-02-05T11:39:09.790Z,100924.25
2019-02-05T11:41:39.161Z,100926.59
2019-02-05T11:44:08.562Z,100926.27
2019-02-05T11:46:37.993Z,100925.83
2019-02-05T11:49:07.423Z,100923.20
2019-02-05T11:51:41.390Z,100925.90
2019-02-05T11:54:10.751Z,100920.95
2019-02-05T11:56:40.376Z,100921.99
2019-02-05T11:59:09.771Z,100922.59
2019-02-05T12:01:40.492Z,100922.56
2019-02-05T12:04:10.751Z,100923.95
2019-02-05T12:06:40.118Z,100921.15
2019-02-05T12:09:16.449Z,100921.77
2019-02-05T12:11:46.078Z,100919.22
2019-02-05T12:14:18.548Z,100917.76
2019-02-05T12:17:07.327Z,100918.72
2019-02-05T12:19:36.971Z,100916.95
2019-02-05T12:22:06.475Z,100918.14
2019-02-05T12:24:36.088Z,100923.10
2019-02-05T12:27:05.867Z,100916.78
2019-02-05T12:29:35.243Z,100916.86
2019-02-05T12:32:04.756Z,100915.88
2019-02-05T12:34:34.508Z,100913.14
2019-02-05T12:37:03.950Z,100916.56
2019-02-05T12:39:33.385Z,100916.89
2019-02-05T12:42:02.760Z,100915.86
2019-02-05T12:44:32.125Z,100909.09
2019-02-05T12:47:01.509Z,100915.44
2019-02-05T12:49:30.886Z,100914.52
2019-02-05T12:52:00.252Z,100910.22
2019-02-05T12:54:29.627Z,100909.06
2019-02-05T12:56:58.997Z,100913.55
2019-02-05T12:59:28.384Z,100904.50
2019-02-05T13:01:57.789Z,100911.72
2019-02-05T13:04:27.134Z,100909.80
2019-02-05T13:06:56.681Z,100916.09
2019-02-05T13:09:26.069Z,100916.07
2019-02-05T13:11:56.266Z,100907.47
2019-02-05T13:14:26.643Z,100909.00
2019-02-05T13:16:56.334Z,100903.33
2019-02-05T13:19:25.709Z,100908.53
2019-02-05T13:21:56.907Z,100906.05
2019-02-05T13:24:26.387Z,100906.81
2019-02-05T13:26:55.743Z,100906.10
2019-02-05T13:29:28.707Z,100904.28
2019-02-05T13:31:56.469Z,100908.19
2019-02-05T13:34:26.401Z,100908.05
2019-02-05T13:36:55.760Z,100910.53
2019-02-05T13:39:25.139Z,100909.38
2019-02-05T13:41:54.731Z,100912.28
2019-02-05T13:44:24.128Z,100910.38
2019-02-05T13:46:53.490Z,100903.78
2019-02-05T13:49:22.939Z,100901.94
2019-02-05T13:51:52.310Z,100906.95
2019-02-05T13:54:21.686Z,100903.02
2019-02-05T13:56:51.310Z,100900.03
2019-02-05T13:59:20.685Z,100904.42
2019-02-05T14:01:50.314Z,100905.00
2019-02-05T14:04:19.861Z,100905.47
2019-02-05T14:06:50.623Z,100910.95
2019-02-05T14:09:20.436Z,100911.56
2019-02-05T14:11:49.795Z,100914.02
2019-02-05T14:14:19.415Z,100912.14
2019-02-05T14:16:49.130Z,100913.84
2019-02-05T14:19:18.596Z,100915.78
2019-02-05T14:21:47.951Z,100905.14
2019-02-05T14:24:17.614Z,100904.34
2019-02-05T14:26:46.981Z,100906.91
2019-02-05T14:29:16.411Z,100893.45
2019-02-05T14:31:45.799Z,100905.32
2019-02-05T14:34:15.349Z,100902.79
2019-02-05T14:36:44.731Z,100901.97
2019-02-05T14:39:14.104Z,100896.64
2019-02-05T14:41:43.812Z,100895.83
2019-02-05T14:44:13.438Z,100898.95
2019-02-05T14:46:43.058Z,100892.08
2019-02-05T14:49:12.504Z,100888.63
2019-02-05T14:51:42.445Z,100889.76
2019-02-05T14:54:11.822Z,100891.23
2019-02-05T14:56:41.201Z,100889.71
2019-02-05T14:59:10.603Z,100894.77
2019-02-05T15:01:43.301Z,100900.56
2019-02-05T15:04:11.089Z,100902.36
2019-02-05T15:06:40.447Z,100897.61
2019-02-05T15:09:09.912Z,100890.20
2019-02-05T15:11:39.474Z,100888.98
2019-02-05T15:14:08.981Z,100887.81
2019-02-05T15:16:38.381Z,100890.59
2019-02-05T15:19:07.734Z,100888.54
2019-02-05T15:21:37.116Z,100886.43
2019-02-05T15:24:06.627Z,100892.56
2019-02-05T15:26:36.013Z,100886.61
2019-02-05T15:29:05.537Z,100886.23
2019-02-05T15:31:36.330Z,100891.45
2019-02-05T15:34:08.027Z,100885.97
2019-02-05T15:36:37.405Z,100889.19
2019-02-05T15:39:11.411Z,100889.03
2019-02-05T15:41:40.785Z,100880.20
2019-02-05T15:44:10.556Z,100885.02
2019-02-05T15:46:39.925Z,100884.94
2019-02-05T15:49:09.359Z,100886.81
2019-02-05T15:51:38.848Z,100890.63
2019-02-05T15:54:08.304Z,100887.92
2019-02-05T15:56:37.743Z,100888.87
2019-02-05T15:59:07.384Z,100891.95
2019-02-05T16:01:36.830Z,100889.98
2019-02-05T16:04:06.446Z,100889.88
2019-02-05T16:06:35.834Z,100890.91
2019-02-05T16:09:07.370Z,100882.16
2019-02-05T16:11:36.753Z,100882.42
2019-02-05T16:14:06.870Z,100882.42
2019-02-05T16:16:36.248Z,100882.58
2019-02-05T16:19:05.696Z,100874.17
2019-02-05T16:21:35.074Z,100872.42
2019-02-05T16:24:05.075Z,100875.62
2019-02-05T16:26:34.508Z,100875.62
2019-02-05T16:29:04.608Z,100866.91
2019-02-05T16:31:33.971Z,100873.23
2019-02-05T16:34:03.961Z,100869.39
2019-02-05T16:36:33.325Z,100864.80
2019-02-05T16:39:02.705Z,100867.25
2019-02-05T16:41:32.069Z,100868.83
2019-02-05T16:44:01.833Z,100873.82
2019-02-05T16:46:31.431Z,100875.69
2019-02-05T16:49:00.806Z,100878.91
2019-02-05T16:51:30.168Z,100882.14
2019-02-05T16:53:59.596Z,100875.85
2019-02-05T16:56:29.037Z,100879.73
2019-02-05T16:58:58.697Z,100882.87
2019-02-05T17:01:28.299Z,100887.48
2019-02-05T17:03:57.921Z,100885.63
2019-02-05T17:06:27.296Z,100889.38
2019-02-05T17:08:56.661Z,100890.00
2019-02-05T17:11:26.026Z,100885.94
2019-02-05T17:13:55.583Z,100883.84
2019-02-05T17:16:24.948Z,100889.11
2019-02-05T17:18:54.317Z,100887.63
2019-02-05T17:21:23.935Z,100886.36
2019-02-05T17:23:53.794Z,100884.44
2019-02-05T17:26:23.179Z,100882.25
2019-02-05T17:28:52.830Z,100884.78
2019-02-05T17:31:22.273Z,100878.48
2019-02-05T17:33:51.674Z,100884.13
2019-02-05T17:36:21.044Z,100878.67
2019-02-05T17:38:50.456Z,100885.39
2019-02-05T17:41:19.793Z,100884.44
2019-02-05T17:43:50.519Z,100886.91
2019-02-05T17:46:20.392Z,100888.75
2019-02-05T17:48:49.772Z,100884.16
2019-02-05T17:51:19.222Z,100882.42
2019-02-05T17:53:48.627Z,100880.71
2019-02-05T17:56:18.021Z,100881.80
2019-02-05T17:58:47.569Z,100878.66
2019-02-05T18:01:17.198Z,100878.33
2019-02-05T18:03:46.978Z,100880.48
2019-02-05T18:06:16.394Z,100891.17
2019-02-05T18:08:45.729Z,100888.15
2019-02-05T18:11:15.106Z,100885.39
2019-02-05T18:13:44.761Z,100876.92
2019-02-05T18:16:14.279Z,100872.30
2019-02-05T18:18:44.611Z,100874.34
2019-02-05T18:21:13.989Z,100873.56
2019-02-05T18:23:43.385Z,100870.20
2019-02-05T18:26:12.895Z,100872.55
2019-02-05T18:28:42.270Z,100870.99
2019-02-05T18:31:11.786Z,100867.17
2019-02-05T18:33:41.168Z,100863.31
2019-02-05T18:36:10.886Z,100869.74
2019-02-05T18:38:40.592Z,100864.87
2019-02-05T18:41:10.060Z,100853.38
2019-02-05T18:43:39.553Z,100857.25
2019-02-05T18:46:08.923Z,100855.98
2019-02-05T18:48:38.299Z,100851.05
2019-02-05T18:51:08.097Z,100842.72
2019-02-05T18:53:37.623Z,100838.63
2019-02-05T18:56:07.063Z,100837.45
2019-02-05T18:58:39.438Z,100838.42
2019-02-05T19:01:08.880Z,100846.36
2019-02-05T19:03:40.842Z,100844.91
2019-02-05T19:06:10.215Z,100846.66
2019-02-05T19:08:39.952Z,100851.66
2019-02-05T19:11:09.738Z,100854.60
2019-02-05T19:13:39.320Z,100846.50
2019-02-05T19:16:08.722Z,100858.89
2019-02-05T19:18:38.089Z,100862.31
2019-02-05T19:21:07.528Z,100858.08
2019-02-05T19:23:58.771Z,100852.66
2019-02-05T19:26:28.616Z,100846.25
2019-02-05T19:28:58.984Z,100839.85
2019-02-05T19:31:33.601Z,100834.33
2019-02-05T19:34:03.299Z,100832.58
2019-02-05T19:36:32.630Z,100834.52
2019-02-05T19:39:06.646Z,100837.73
2019-02-05T19:41:36.001Z,100831.77
2019-02-05T19:44:05.677Z,100824.37
2019-02-05T19:46:39.584Z,100818.41
2019-02-05T19:49:20.320Z,100814.52
2019-02-05T19:51:41.966Z,100812.97
2019-02-05T19:54:11.642Z,100805.55
2019-02-05T19:56:41.134Z,100805.16
2019-02-05T19:59:19.792Z,100806.25
2019-02-05T20:01:49.193Z,100808.20
2019-02-05T20:04:18.519Z,100801.41
2019-02-05T20:06:47.971Z,100809.38
2019-02-05T20:09:17.337Z,100808.15
2019-02-05T20:11:46.725Z,100804.46
2019-02-05T20:14:16.156Z,100802.50
2019-02-05T20:16:45.647Z,100803.06
2019-02-05T20:19:14.959Z,100797.30
2019-02-05T20:21:44.771Z,100801.13
2019-02-05T20:24:14.396Z,100799.55
2019-02-05T20:26:54.562Z,100797.83
2019-02-05T20:29:25.586Z,100793.63
2019-02-05T20:32:02.386Z,100796.22
2019-02-05T20:34:35.871Z,100791.84
2019-02-05T20:37:05.482Z,100789.41
2019-02-05T20:39:37.814Z,100790.06
2019-02-05T20:42:07.257Z,100792.34
2019-02-05T20:44:38.240Z,100800.35
2019-02-05T20:47:11.651Z,100804.84
2019-02-05T20:49:43.945Z,100800.14
2019-02-05T20:52:13.412Z,100805.84
2019-02-05T20:54:42.849Z,100804.58
2019-02-05T20:57:12.380Z,100799.81
2019-02-05T20:59:41.873Z,100799.01
2019-02-05T21:02:12.471Z,100801.81
2019-02-05T21:04:48.544Z,100799.56
2019-02-05T21:07:20.817Z,100805.05
2019-02-05T21:09:50.688Z,100807.00
2019-02-05T21:12:24.789Z,100803.19
2019-02-05T21:14:56.097Z,100801.22
2019-02-05T21:17:25.669Z,100789.95
2019-02-05T21:19:59.831Z,100795.66
2019-02-05T21:22:30.923Z,100796.52
2019-02-05T21:25:02.402Z,100790.25
2019-02-05T21:27:31.789Z,100792.77
2019-02-05T21:30:02.789Z,100790.12
2019-02-05T21:32:32.515Z,100790.97
2019-02-05T21:35:01.906Z,100790.62
2019-02-05T21:37:34.847Z,100794.43
2019-02-05T21:40:08.010Z,100789.95
2019-02-05T21:42:37.558Z,100793.10
2019-02-05T21:45:18.609Z,100794.20
2019-02-05T21:48:07.333Z,100794.88
2019-02-05T21:50:36.952Z,100793.63
2019-02-05T21:53:06.308Z,100795.22
2019-02-05T21:55:36.633Z,100801.75
2019-02-05T21:58:06.245Z,100801.11
2019-02-05T22:00:36.837Z,100801.76
2019-02-05T22:03:07.487Z,100798.05
2019-02-05T22:05:36.866Z,100797.57
2019-02-05T22:08:08.783Z,100796.00
2019-02-05T22:10:38.058Z,100791.20
2019-02-05T22:13:07.540Z,100788.31
2019-02-05T22:15:36.903Z,100787.22
2019-02-05T22:18:06.592Z,100797.78
2019-02-05T22:20:36.904Z,100797.93
2019-02-05T22:23:06.880Z,100793.55
2019-02-05T22:25:36.232Z,100796.50
2019-02-05T22:28:06.167Z,100794.50
2019-02-05T22:30:38.764Z,100792.00
2019-02-05T22:33:08.976Z,100789.23
2019-02-05T22:35:38.476Z,100780.61
2019-02-05T22:38:07.926Z,100779.09
2019-02-05T22:40:37.294Z,100789.33
2019-02-05T22:43:07.039Z,100788.59
2019-02-05T22:45:36.425Z,100785.05
2019-02-05T22:48:07.538Z,100785.97
2019-02-05T22:50:38.553Z,100791.23
2019-02-05T22:53:10.557Z,100797.30
2019-02-05T22:55:39.999Z,100802.63
2019-02-05T22:58:09.691Z,100800.13
2019-02-05T23:01:01.571Z,100795.45
2019-02-05T23:03:41.463Z,100799.37
2019-02-05T23:06:39.291Z,100802.98
2019-02-05T23:09:16.202Z,100801.73
2019-02-05T23:12:14.459Z,100799.41
2019-02-05T23:14:47.487Z,100798.16
2019-02-05T23:17:16.957Z,100798.27
2019-02-05T23:19:46.294Z,100795.03
2019-02-05T23:22:15.977Z,100802.96
2019-02-05T23:24:45.344Z,100801.97
2019-02-05T23:27:14.721Z,100801.97
2019-02-05T23:29:44.643Z,100803.47
2019-02-05T23:32:14.017Z,100802.06
2019-02-05T23:34:43.461Z,100793.17
2019-02-05T23:37:12.885Z,100795.94
2019-02-05T23:39:42.235Z,100799.29
2019-02-05T23:42:11.623Z,100801.52
2019-02-05T23:44:41.169Z,100797.19
2019-02-05T23:47:10.535Z,100791.91
2019-02-05T23:49:39.904Z,100797.08
2019-02-05T23:52:09.288Z,100795.23
2019-02-05T23:54:38.665Z,100793.83
2019-02-05T23:57:09.962Z,100794.64
2019-02-05T23:59:39.132Z,100794.90
